Time;durP1;ratioP1;P1;durP2;ratioP2;P2;SDS_P1;SDS_P2;PMS_P1;PMS_P2;Temp;Humidity;BMP_temperature;BMP_pressure;BME280_temperature;BME280_humidity;BME280_pressure;Samples;Min_cycle;Max_cycle;Signal;HPM_P1;HPM_P2
2020/12/14 00:00:24;;;;;;;21.20;18.48;;;;;;;1.22;100.00;95707.50;1036747;28;20024;-70
2020/12/14 00:00:55;;;;;;;24.88;20.05;;;;;;;1.28;100.00;95708.44;1036123;28;20276;-70
2020/12/14 00:01:25;;;;;;;20.63;18.10;;;;;;;1.30;100.00;95709.00;1036190;28;20502;-68
2020/12/14 00:01:56;;;;;;;24.42;19.60;;;;;;;1.27;100.00;95710.25;1032621;28;20279;-70
2020/12/14 00:02:27;;;;;;;26.75;20.42;;;;;;;1.25;100.00;95709.69;1032336;28;20077;-72
2020/12/14 00:02:59;;;;;;;23.73;19.02;;;;;;;1.26;100.00;95703.44;1036197;28;20032;-70
2020/12/14 00:03:29;;;;;;;24.40;20.80;;;;;;;1.27;100.00;95702.44;1036166;28;20261;-68
2020/12/14 00:03:59;;;;;;;25.13;19.58;;;;;;;1.29;100.00;95704.78;1036477;28;20272;-70
2020/12/14 00:04:30;;;;;;;21.55;18.55;;;;;;;1.31;100.00;95710.56;1040248;28;20056;-69
2020/12/14 00:05:00;;;;;;;23.60;18.75;;;;;;;1.31;100.00;95703.56;1040265;28;20454;-67
2020/12/14 00:05:31;;;;;;;19.10;17.08;;;;;;;1.37;100.00;95704.50;1040286;28;20018;-73
2020/12/14 00:06:01;;;;;;;23.50;19.13;;;;;;;1.39;100.00;95697.25;1040358;28;20014;-69
2020/12/14 00:06:32;;;;;;;19.15;16.20;;;;;;;1.43;100.00;95705.41;1040190;28;20481;-72
2020/12/14 00:07:02;;;;;;;18.88;16.73;;;;;;;1.47;100.00;95709.19;1035728;28;20014;-73
2020/12/14 00:07:33;;;;;;;17.55;15.63;;;;;;;1.47;100.00;95704.75;1040206;28;20029;-72
2020/12/14 00:08:04;;;;;;;19.95;16.45;;;;;;;1.50;100.00;95703.50;1044165;28;20029;-72
2020/12/14 00:08:34;;;;;;;19.05;16.90;;;;;;;1.50;100.00;95696.47;1040344;28;20036;-67
2020/12/14 00:09:05;;;;;;;19.48;15.90;;;;;;;1.55;100.00;95701.81;1044296;28;20480;-72
2020/12/14 00:09:35;;;;;;;18.42;16.13;;;;;;;1.57;100.00;95705.00;1040223;28;20029;-74
2020/12/14 00:10:07;;;;;;;18.70;16.30;;;;;;;1.59;100.00;95700.38;1040387;28;20049;-73
2020/12/14 00:10:38;;;;;;;19.90;16.05;;;;;;;1.61;100.00;95702.75;1044318;28;20029;-69
2020/12/14 00:11:08;;;;;;;20.92;16.88;;;;;;;1.61;100.00;95705.38;1040355;28;20260;-72
2020/12/14 00:11:43;;;;;;;19.38;16.63;;;;;;;1.65;100.00;95716.16;1032099;28;20509;-70
2020/12/14 00:12:14;;;;;;;17.70;15.93;;;;;;;1.66;100.00;95708.06;1032160;28;20266;-70
2020/12/14 00:12:45;;;;;;;17.88;15.93;;;;;;;1.63;100.00;95713.75;1028085;28;20298;-66
2020/12/14 00:13:17;;;;;;;19.90;17.45;;;;;;;1.60;100.00;95706.38;1029705;28;20031;-72
2020/12/14 00:13:47;;;;;;;18.98;16.05;;;;;;;1.59;100.00;95702.19;1031761;28;20107;-66
2020/12/14 00:14:18;;;;;;;18.17;14.77;;;;;;;1.63;100.00;95710.38;1032786;28;20813;-74
2020/12/14 00:14:48;;;;;;;19.13;16.75;;;;;;;1.63;100.00;95702.53;1040241;28;20021;-69
2020/12/14 00:15:19;;;;;;;17.55;14.60;;;;;;;1.62;100.00;95704.31;1039663;28;20033;-68
2020/12/14 00:15:49;;;;;;;18.38;15.45;;;;;;;1.64;100.00;95704.13;1040333;28;20032;-71
2020/12/14 00:16:20;;;;;;;17.63;13.60;;;;;;;1.68;100.00;95702.66;1040321;28;20036;-74
2020/12/14 00:16:50;;;;;;;17.98;14.85;;;;;;;1.71;100.00;95692.56;1040086;28;20418;-72
2020/12/14 00:17:21;;;;;;;17.30;14.25;;;;;;;1.75;100.00;95701.53;1040245;28;20030;-68
2020/12/14 00:17:51;;;;;;;16.73;14.15;;;;;;;1.72;100.00;95698.56;1040232;28;20029;-72
2020/12/14 00:18:22;;;;;;;18.98;15.95;;;;;;;1.74;100.00;95701.75;1040578;28;20079;-69
2020/12/14 00:18:52;;;;;;;17.60;15.70;;;;;;;1.70;100.00;95704.00;1040157;28;20041;-70
2020/12/14 00:19:23;;;;;;;16.48;14.75;;;;;;;1.71;100.00;95699.59;1040269;28;20024;-71
2020/12/14 00:19:54;;;;;;;17.75;13.30;;;;;;;1.75;100.00;95696.31;1036071;28;20025;-71
2020/12/14 00:20:24;;;;;;;17.13;14.95;;;;;;;1.74;100.00;95699.94;1036348;28;20292;-74
2020/12/14 00:20:55;;;;;;;18.92;15.85;;;;;;;1.72;100.00;95695.97;1040131;28;20022;-74
2020/12/14 00:21:25;;;;;;;19.02;15.48;;;;;;;1.71;100.00;95700.38;1036222;28;20473;-70
2020/12/14 00:21:56;;;;;;;18.40;15.25;;;;;;;1.74;100.00;95705.13;1039850;28;20021;-73
2020/12/14 00:22:33;;;;;;;17.77;14.57;;;;;;;1.76;100.00;95697.91;1040313;28;20017;-70
2020/12/14 00:23:04;;;;;;;16.75;14.95;;;;;;;1.76;100.00;95702.31;1032779;28;20026;-70
2020/12/14 00:23:34;;;;;;;17.92;15.40;;;;;;;1.72;100.00;95701.19;1032165;28;20304;-74
2020/12/14 00:24:05;;;;;;;17.75;14.90;;;;;;;1.72;100.00;95699.34;1032005;28;20027;-73
2020/12/14 00:24:36;;;;;;;17.70;15.52;;;;;;;1.74;100.00;95702.53;1032320;28;20030;-73
2020/12/14 00:25:06;;;;;;;18.00;16.05;;;;;;;1.70;100.00;95705.81;1040235;28;20037;-72
2020/12/14 00:25:36;;;;;;;21.13;15.68;;;;;;;1.71;100.00;95695.16;1040112;28;20018;-72
2020/12/14 00:26:08;;;;;;;18.00;15.02;;;;;;;1.69;100.00;95694.59;1040042;28;20053;-74
2020/12/14 00:26:38;;;;;;;18.83;15.75;;;;;;;1.64;100.00;95691.84;1040209;28;20049;-74
2020/12/14 00:27:09;;;;;;;16.63;14.82;;;;;;;1.70;100.00;95705.81;1036373;28;20308;-74
2020/12/14 00:27:39;;;;;;;19.23;15.85;;;;;;;1.67;100.00;95701.84;1036346;28;20402;-74
2020/12/14 00:28:10;;;;;;;17.95;15.02;;;;;;;1.67;100.00;95701.84;1031909;28;20076;-75
2020/12/14 00:28:40;;;;;;;18.50;15.45;;;;;;;1.66;100.00;95702.06;1032239;28;20077;-68
2020/12/14 00:29:11;;;;;;;18.77;16.58;;;;;;;1.65;100.00;95701.28;1032124;28;20026;-74
2020/12/14 00:29:41;;;;;;;19.13;16.77;;;;;;;1.67;100.00;95696.63;1036333;28;20030;-72
2020/12/14 00:30:12;;;;;;;20.70;17.42;;;;;;;1.67;100.00;95703.69;1040135;28;20032;-73
2020/12/14 00:30:42;;;;;;;18.58;16.58;;;;;;;1.66;100.00;95699.47;1040243;28;20032;-75
2020/12/14 00:31:16;;;;;;;18.58;16.58;;;;;;;1.70;100.00;95700.59;1040516;28;20022;-73
2020/12/14 00:31:50;;;;;;;20.70;17.15;;;;;;;1.68;100.00;95698.22;1040266;28;20064;-74
2020/12/14 00:32:22;;;;;;;18.15;15.75;;;;;;;1.68;100.00;95695.59;1040358;28;20268;-75
2020/12/14 00:32:52;;;;;;;20.05;17.02;;;;;;;1.69;100.00;95702.44;1040234;28;20355;-71
2020/12/14 00:33:23;;;;;;;19.67;17.00;;;;;;;1.71;100.00;95697.78;1040275;28;20725;-75
2020/12/14 00:33:53;;;;;;;19.08;16.70;;;;;;;1.70;100.00;95705.81;1040309;28;20037;-74
2020/12/14 00:34:24;;;;;;;19.80;16.17;;;;;;;1.69;100.00;95694.59;1039216;28;20025;-70
2020/12/14 00:34:54;;;;;;;20.38;16.65;;;;;;;1.69;100.00;95702.44;1036360;28;20022;-70
2020/12/14 00:35:25;;;;;;;18.25;16.20;;;;;;;1.71;100.00;95708.22;1036399;28;20022;-73
2020/12/14 00:35:55;;;;;;;18.98;15.90;;;;;;;1.72;100.00;95706.41;1036331;28;20383;-73
2020/12/14 00:36:26;;;;;;;20.25;16.63;;;;;;;1.74;100.00;95702.53;1036389;28;20017;-73
2020/12/14 00:36:56;;;;;;;19.13;16.73;;;;;;;1.81;100.00;95709.50;1036160;28;20029;-72
2020/12/14 00:37:27;;;;;;;18.52;16.48;;;;;;;1.75;100.00;95708.56;1036470;28;20109;-75
2020/12/14 00:37:58;;;;;;;21.70;18.80;;;;;;;1.72;100.00;95706.41;1035541;28;20034;-74
2020/12/14 00:38:29;;;;;;;18.27;16.00;;;;;;;1.75;100.00;95706.75;1036369;28;20045;-70
2020/12/14 00:38:59;;;;;;;19.55;17.45;;;;;;;1.73;100.00;95710.59;1032011;28;20335;-76
2020/12/14 00:39:31;;;;;;;23.35;18.40;;;;;;;1.74;100.00;95705.13;1032131;28;20033;-71
2020/12/14 00:40:01;;;;;;;19.02;16.95;;;;;;;1.77;100.00;95706.53;1028228;28;20023;-75
2020/12/14 00:40:32;;;;;;;21.08;17.67;;;;;;;1.74;100.00;95704.34;1028347;28;20478;-75
2020/12/14 00:41:03;;;;;;;19.58;17.25;;;;;;;1.76;100.00;95710.13;1036138;28;20030;-74
2020/12/14 00:41:33;;;;;;;18.63;16.52;;;;;;;1.78;100.00;95711.53;1028088;28;20130;-74
2020/12/14 00:42:04;;;;;;;18.55;16.15;;;;;;;1.78;100.00;95706.31;1027961;28;20376;-74
2020/12/14 00:42:40;;;;;;;19.40;16.73;;;;;;;1.79;100.00;95713.09;1028090;28;20037;-75
2020/12/14 00:43:10;;;;;;;18.38;16.23;;;;;;;1.81;100.00;95710.28;1028838;28;20011;-73
2020/12/14 00:43:41;;;;;;;18.75;16.48;;;;;;;1.83;100.00;95702.22;1032903;28;20250;-72
2020/12/14 00:44:11;;;;;;;18.92;16.90;;;;;;;1.83;100.00;95703.03;1036061;28;20029;-74
2020/12/14 00:44:42;;;;;;;18.67;16.33;;;;;;;1.87;100.00;95704.16;1036195;28;20095;-75
2020/12/14 00:45:12;;;;;;;18.88;15.68;;;;;;;1.85;100.00;95708.81;1036160;28;20026;-75
2020/12/14 00:45:43;;;;;;;20.10;16.73;;;;;;;1.85;100.00;95700.97;1032073;28;20033;-74
2020/12/14 00:46:17;;;;;;;19.40;16.30;;;;;;;1.84;100.00;95709.03;1031949;28;20022;-69
2020/12/14 00:46:47;;;;;;;19.65;16.85;;;;;;;1.87;100.00;95708.59;1032612;28;20050;-70
2020/12/14 00:47:18;;;;;;;23.02;16.92;;;;;;;1.87;100.00;95703.38;1039964;28;20284;-71
2020/12/14 00:47:48;;;;;;;20.55;17.13;;;;;;;1.87;100.00;95704.16;1040130;28;20033;-71
2020/12/14 00:48:19;;;;;;;17.88;15.93;;;;;;;1.89;100.00;95694.28;1040132;28;20478;-74
2020/12/14 00:48:50;;;;;;;19.02;16.83;;;;;;;1.88;100.00;95703.13;1040070;28;20021;-71
2020/12/14 00:49:20;;;;;;;20.08;17.55;;;;;;;1.89;100.00;95703.94;1036111;28;20053;-70
2020/12/14 00:49:51;;;;;;;23.85;18.10;;;;;;;1.87;100.00;95704.16;1036187;28;20029;-71
2020/12/14 00:50:21;;;;;;;19.77;17.02;;;;;;;1.86;100.00;95702.56;1036307;28;20033;-73
2020/12/14 00:50:52;;;;;;;20.33;17.42;;;;;;;1.84;100.00;95701.19;1038143;28;20482;-70
2020/12/14 00:51:29;;;;;;;22.65;18.25;;;;;;;1.89;100.00;95701.31;1040331;28;20091;-71
2020/12/14 00:52:04;;;;;;;21.60;17.88;;;;;;;1.89;100.00;95699.50;1040087;28;20127;-69
2020/12/14 00:52:34;;;;;;;20.80;17.17;;;;;;;1.88;100.00;95702.34;1040432;28;20268;-68
2020/12/14 00:53:05;;;;;;;20.67;17.60;;;;;;;1.84;100.00;95699.38;1040157;28;20268;-69
2020/12/14 00:53:35;;;;;;;21.48;18.20;;;;;;;1.84;100.00;95701.19;1040043;28;20033;-71
2020/12/14 00:54:07;;;;;;;21.38;17.92;;;;;;;1.85;100.00;95706.19;1040172;28;20029;-71
2020/12/14 00:54:38;;;;;;;21.17;18.00;;;;;;;1.87;100.00;95700.75;1039994;28;20275;-68
2020/12/14 00:55:08;;;;;;;20.17;17.08;;;;;;;1.86;100.00;95699.94;1040208;28;20812;-68
2020/12/14 00:55:39;;;;;;;20.23;17.45;;;;;;;1.86;100.00;95697.34;1040324;28;20429;-68
2020/12/14 00:56:09;;;;;;;20.17;16.98;;;;;;;1.87;100.00;95700.75;1040472;28;20057;-68
2020/12/14 00:56:41;;;;;;;21.63;18.27;;;;;;;1.88;100.00;95707.56;1040352;28;20458;-72
2020/12/14 00:57:11;;;;;;;21.35;17.60;;;;;;;1.88;100.00;95700.50;1040392;28;20035;-70
2020/12/14 00:57:42;;;;;;;19.67;17.23;;;;;;;1.96;100.00;95708.03;1040077;28;20322;-75
2020/12/14 00:58:12;;;;;;;19.80;16.80;;;;;;;1.94;100.00;95702.25;1040090;28;20024;-72
2020/12/14 00:58:42;;;;;;;22.10;17.58;;;;;;;1.94;100.00;95699.63;1028002;28;20015;-68
2020/12/14 00:59:14;;;;;;;19.73;17.05;;;;;;;1.95;100.00;95698.59;1028195;28;20523;-69
2020/12/14 00:59:44;;;;;;;20.98;18.52;;;;;;;1.90;100.00;95703.72;1031825;28;20269;-69
2020/12/14 01:00:14;;;;;;;20.55;18.02;;;;;;;1.90;100.00;95701.09;1032441;28;20042;-72
2020/12/14 01:00:45;;;;;;;20.80;18.48;;;;;;;1.90;100.00;95698.50;1044011;28;20025;-69
2020/12/14 01:01:16;;;;;;;21.30;19.00;;;;;;;1.86;100.00;95697.34;1040414;28;20022;-71
2020/12/14 01:01:53;;;;;;;20.75;18.02;;;;;;;1.93;100.00;95705.88;1040316;28;20021;-71
2020/12/14 01:02:24;;;;;;;20.88;17.60;;;;;;;1.91;100.00;95699.28;1040283;28;20271;-71
2020/12/14 01:02:55;;;;;;;20.88;17.55;;;;;;;1.92;100.00;95701.69;1040343;28;20306;-72
2020/12/14 01:03:26;;;;;;;22.13;18.27;;;;;;;1.96;100.00;95696.78;1040314;28;20732;-72
2020/12/14 01:03:57;;;;;;;20.17;17.75;;;;;;;1.97;100.00;95703.59;1040175;28;20041;-68
2020/12/14 01:04:27;;;;;;;20.33;17.45;;;;;;;1.94;100.00;95697.03;1044230;28;20263;-72
2020/12/14 01:04:59;;;;;;;20.55;17.23;;;;;;;1.93;100.00;95694.63;1043967;28;20044;-73
2020/12/14 01:05:29;;;;;;;23.40;18.45;;;;;;;1.96;100.00;95696.78;1044166;28;20275;-67
2020/12/14 01:06:01;;;;;;;20.90;17.30;;;;;;;1.95;100.00;95701.22;1044014;28;20413;-70
2020/12/14 01:06:31;;;;;;;21.45;17.10;;;;;;;1.95;100.00;95695.22;1039673;28;20413;-70
2020/12/14 01:07:02;;;;;;;19.38;16.85;;;;;;;1.96;100.00;95700.22;1039556;28;20311;-68
2020/12/14 01:07:32;;;;;;;21.75;17.80;;;;;;;1.95;100.00;95703.81;1040152;28;20092;-71
2020/12/14 01:08:03;;;;;;;22.80;18.60;;;;;;;1.93;100.00;95702.47;1040029;28;20025;-70
2020/12/14 01:08:34;;;;;;;23.83;18.63;;;;;;;1.98;100.00;95702.56;1044251;28;20021;-72
2020/12/14 01:09:04;;;;;;;21.27;18.73;;;;;;;1.94;100.00;95710.06;1040115;28;20030;-72
2020/12/14 01:09:35;;;;;;;22.23;19.02;;;;;;;1.96;100.00;95707.22;1031888;28;20026;-70
2020/12/14 01:10:05;;;;;;;20.67;18.48;;;;;;;1.98;100.00;95706.00;1036074;28;20022;-70
2020/12/14 01:10:36;;;;;;;20.77;17.48;;;;;;;1.95;100.00;95708.25;1038459;28;20061;-72
2020/12/14 01:11:06;;;;;;;22.90;19.70;;;;;;;1.91;100.00;95707.13;1040217;28;20034;-70
2020/12/14 01:11:37;;;;;;;24.90;19.80;;;;;;;1.94;100.00;95715.28;1048146;28;20021;-70
2020/12/14 01:12:07;;;;;;;20.92;17.88;;;;;;;1.94;100.00;95711.88;1035894;28;20036;-71
2020/12/14 01:12:38;;;;;;;22.98;17.58;;;;;;;1.96;100.00;95712.44;1035985;28;20018;-72
2020/12/14 01:13:08;;;;;;;21.92;18.63;;;;;;;1.95;100.00;95709.03;1035973;28;20077;-73
2020/12/14 01:13:39;;;;;;;21.13;18.38;;;;;;;1.95;100.00;95718.69;1036022;28;20538;-70
2020/12/14 01:14:09;;;;;;;20.27;17.75;;;;;;;1.96;100.00;95720.25;1040382;28;20359;-71
2020/12/14 01:14:40;;;;;;;22.45;18.40;;;;;;;1.97;100.00;95714.03;1040299;28;20032;-70
2020/12/14 01:15:10;;;;;;;23.83;19.05;;;;;;;1.98;100.00;95715.63;1040207;28;20477;-69
2020/12/14 01:15:41;;;;;;;22.05;19.40;;;;;;;1.97;100.00;95714.03;1040043;28;20029;-70
2020/12/14 01:16:12;;;;;;;23.15;19.17;;;;;;;1.95;100.00;95714.25;1036069;28;20111;-71
2020/12/14 01:16:45;;;;;;;24.80;20.15;;;;;;;1.96;100.00;95713.25;1036291;28;20029;-70
2020/12/14 01:17:16;;;;;;;23.58;18.58;;;;;;;2.00;100.00;95721.41;1035932;28;20275;-74
2020/12/14 01:17:46;;;;;;;23.40;18.92;;;;;;;1.99;100.00;95717.22;1036369;28;20272;-72
2020/12/14 01:18:17;;;;;;;22.23;18.15;;;;;;;2.01;100.00;95711.78;1040118;28;20032;-70
2020/12/14 01:18:47;;;;;;;21.38;18.75;;;;;;;2.02;100.00;95710.75;1040019;28;20021;-68
2020/12/14 01:19:18;;;;;;;25.30;18.67;;;;;;;2.03;100.00;95717.56;1040358;28;20075;-74
2020/12/14 01:19:48;;;;;;;18.20;16.20;;;;;;;2.07;100.00;95721.31;1040365;28;20018;-72
2020/12/14 01:20:19;;;;;;;20.00;17.73;;;;;;;2.04;100.00;95719.94;1040448;28;20028;-70
2020/12/14 01:20:49;;;;;;;25.00;19.75;;;;;;;2.03;100.00;95717.56;1040321;28;20022;-69
2020/12/14 01:21:21;;;;;;;19.50;17.40;;;;;;;2.05;100.00;95716.31;1040037;28;20021;-67
2020/12/14 01:21:51;;;;;;;19.95;16.90;;;;;;;2.07;100.00;95718.69;1038989;28;20020;-70
2020/12/14 01:22:22;;;;;;;20.52;18.15;;;;;;;2.12;100.00;95719.63;1040074;28;20808;-69
2020/12/14 01:22:52;;;;;;;18.88;16.67;;;;;;;2.15;100.00;95724.38;1036176;28;20486;-69
2020/12/14 01:23:23;;;;;;;18.17;16.17;;;;;;;2.18;100.00;95728.34;1039735;28;20033;-69
2020/12/14 01:23:53;;;;;;;18.17;16.27;;;;;;;2.22;100.00;95721.66;1035971;28;20057;-72
2020/12/14 01:24:24;;;;;;;19.80;16.83;;;;;;;2.21;100.00;95732.34;1031963;28;20084;-73
2020/12/14 01:24:54;;;;;;;18.70;16.70;;;;;;;2.18;100.00;95725.72;1035992;28;20018;-74
2020/12/14 01:25:25;;;;;;;19.15;16.92;;;;;;;2.17;100.00;95735.38;1036128;28;20406;-70
2020/12/14 01:25:55;;;;;;;18.70;16.73;;;;;;;2.21;100.00;95732.34;1039867;28;20064;-68
2020/12/14 01:26:26;;;;;;;19.67;16.27;;;;;;;2.19;100.00;95729.94;1048304;28;20032;-69
2020/12/14 01:26:56;;;;;;;25.63;17.92;;;;;;;2.21;100.00;95734.94;1044012;28;20065;-73
2020/12/14 01:27:26;;;;;;;18.88;16.23;;;;;;;2.25;100.00;95743.91;1035933;28;20030;-69
2020/12/14 01:27:57;;;;;;;22.95;16.90;;;;;;;2.27;100.00;95734.03;1035961;28;20080;-69
2020/12/14 01:28:27;;;;;;;20.88;18.65;;;;;;;2.27;100.00;95741.88;1032036;28;20019;-74
2020/12/14 01:28:58;;;;;;;20.88;18.27;;;;;;;2.27;100.00;95741.88;1036034;28;20030;-71
2020/12/14 01:29:28;;;;;;;20.05;17.20;;;;;;;2.29;100.00;95737.22;1040253;28;20492;-70
2020/12/14 01:29:59;;;;;;;22.92;19.35;;;;;;;2.29;100.00;95734.59;1040335;28;20740;-69
2020/12/14 01:30:29;;;;;;;19.63;17.52;;;;;;;2.31;100.00;95740.38;1040354;28;20025;-71
2020/12/14 01:31:00;;;;;;;18.60;16.60;;;;;;;2.27;100.00;95740.03;1040225;28;20029;-73
2020/12/14 01:31:30;;;;;;;18.02;16.13;;;;;;;2.28;100.00;95740.84;1040260;28;20022;-69
2020/12/14 01:32:01;;;;;;;20.13;16.17;;;;;;;2.26;100.00;95740.25;1040361;28;20029;-72
2020/12/14 01:32:31;;;;;;;17.42;15.05;;;;;;;2.25;100.00;95744.69;1040306;28;20033;-72
2020/12/14 01:33:02;;;;;;;19.63;17.52;;;;;;;2.26;100.00;95743.69;1040257;28;20029;-70
2020/12/14 01:33:34;;;;;;;17.30;15.48;;;;;;;2.29;100.00;95743.22;1040325;28;20017;-70
2020/12/14 01:34:04;;;;;;;16.52;14.82;;;;;;;2.31;100.00;95749.00;1040323;28;20017;-73
2020/12/14 01:34:34;;;;;;;16.98;14.70;;;;;;;2.29;100.00;95748.44;1040416;28;20314;-70
2020/12/14 01:35:05;;;;;;;20.38;17.02;;;;;;;2.32;100.00;95750.63;1044020;28;20021;-73
2020/12/14 01:35:35;;;;;;;20.25;17.50;;;;;;;2.34;100.00;95747.78;1044134;28;20103;-70
2020/12/14 01:36:06;;;;;;;18.10;15.73;;;;;;;2.29;100.00;95747.66;1044197;28;20028;-72
2020/12/14 01:36:37;;;;;;;16.15;14.55;;;;;;;2.34;100.00;95750.41;1043610;28;20135;-71
2020/12/14 01:37:08;;;;;;;19.15;15.60;;;;;;;2.29;100.00;95753.66;1040251;28;20378;-72
2020/12/14 01:37:39;;;;;;;18.05;14.77;;;;;;;2.35;100.00;95757.19;1040240;28;20306;-73
2020/12/14 01:38:09;;;;;;;15.43;13.85;;;;;;;2.42;100.00;95757.88;1039990;28;20041;-74
2020/12/14 01:38:40;;;;;;;16.27;14.15;;;;;;;2.39;100.00;95753.09;1040208;28;20631;-72
2020/12/14 01:39:10;;;;;;;16.23;14.52;;;;;;;2.37;100.00;95757.75;1040270;28;20083;-72
2020/12/14 01:39:41;;;;;;;14.73;13.23;;;;;;;2.41;100.00;95755.50;1040351;28;20025;-67
2020/12/14 01:40:11;;;;;;;15.05;13.43;;;;;;;2.43;100.00;95751.63;1040293;28;20104;-71
2020/12/14 01:40:42;;;;;;;15.25;13.70;;;;;;;2.44;100.00;95755.84;1040240;28;20091;-73
2020/12/14 01:41:12;;;;;;;18.10;14.45;;;;;;;2.39;100.00;95750.50;1040320;28;20466;-70
2020/12/14 01:41:43;;;;;;;15.80;13.60;;;;;;;2.44;100.00;95749.81;1040233;28;20025;-69
2020/12/14 01:42:13;;;;;;;17.75;15.90;;;;;;;2.40;100.00;95749.47;1040282;28;20017;-75
2020/12/14 01:42:48;;;;;;;18.42;16.45;;;;;;;2.41;100.00;95751.06;1040343;28;20022;-67
2020/12/14 01:43:19;;;;;;;17.98;15.40;;;;;;;2.45;100.00;95749.59;1040316;28;20025;-71
2020/12/14 01:43:50;;;;;;;15.77;14.07;;;;;;;2.46;100.00;95748.56;1040224;28;20594;-71
2020/12/14 01:44:21;;;;;;;15.35;13.60;;;;;;;2.35;100.00;95744.13;1040196;28;20033;-73
2020/12/14 01:44:51;;;;;;;15.85;13.30;;;;;;;2.41;100.00;95747.66;1039930;28;20268;-69
2020/12/14 01:45:23;;;;;;;16.52;14.70;;;;;;;2.43;100.00;95745.63;1040031;28;20099;-70
2020/12/14 01:45:53;;;;;;;15.85;13.52;;;;;;;2.41;100.00;95740.63;1031813;28;20057;-70
2020/12/14 01:46:28;;;;;;;16.40;14.70;;;;;;;2.37;100.00;95740.28;1030710;28;20280;-69
2020/12/14 01:47:02;;;;;;;15.60;13.48;;;;;;;2.35;100.00;95741.53;1031278;28;20048;-69
2020/12/14 01:47:41;;;;;;;14.90;13.30;;;;;;;2.38;100.00;95741.09;1037142;28;20269;-71
2020/12/14 01:48:12;;;;;;;15.88;13.15;;;;;;;2.36;100.00;95740.53;1042236;28;20271;-72
2020/12/14 01:48:42;;;;;;;16.77;14.50;;;;;;;2.41;100.00;95738.00;1039938;28;20248;-67
2020/12/14 01:49:13;;;;;;;15.45;13.70;;;;;;;2.37;100.00;95729.81;1038904;28;20013;-69
2020/12/14 01:49:43;;;;;;;15.18;13.57;;;;;;;2.38;100.00;95741.09;1035912;28;20045;-69
2020/12/14 01:50:14;;;;;;;16.65;14.13;;;;;;;2.37;100.00;95736.88;1031938;28;20089;-72
2020/12/14 01:50:44;;;;;;;15.48;13.82;;;;;;;2.43;100.00;95737.78;1035938;28;20451;-67
2020/12/14 01:51:14;;;;;;;16.02;13.40;;;;;;;2.36;100.00;95730.06;1031896;28;20014;-69
2020/12/14 01:51:45;;;;;;;17.15;15.15;;;;;;;2.33;100.00;95735.75;1035629;28;20113;-69
2020/12/14 01:52:17;;;;;;;19.77;15.38;;;;;;;2.34;100.00;95734.72;1043758;28;20013;-65
2020/12/14 01:52:47;;;;;;;18.55;16.35;;;;;;;2.34;100.00;95734.72;1035804;28;20265;-67
2020/12/14 01:53:18;;;;;;;19.35;15.57;;;;;;;2.32;100.00;95728.91;1027233;28;20019;-71
2020/12/14 01:53:49;;;;;;;16.20;14.35;;;;;;;2.36;100.00;95733.47;1020259;29;20425;-72
2020/12/14 01:54:28;;;;;;;21.10;17.45;;;;;;;2.39;100.00;95727.78;1024608;28;20336;-68
2020/12/14 01:55:00;;;;;;;18.80;15.75;;;;;;;2.37;100.00;95724.59;1034607;28;20069;-68
2020/12/14 01:55:36;;;;;;;20.05;16.73;;;;;;;2.34;100.00;95726.91;1039829;28;20337;-67
2020/12/14 01:56:07;;;;;;;19.30;16.85;;;;;;;2.35;100.00;95718.03;1040068;28;20355;-68
2020/12/14 01:56:37;;;;;;;19.33;15.73;;;;;;;2.37;100.00;95722.00;1040235;28;20755;-71
2020/12/14 01:57:07;;;;;;;18.02;14.98;;;;;;;2.34;100.00;95722.47;1039607;28;20025;-69
2020/12/14 01:57:38;;;;;;;19.90;15.77;;;;;;;2.28;100.00;95715.53;1039993;28;20112;-67
2020/12/14 01:58:09;;;;;;;18.20;15.90;;;;;;;2.22;100.00;95711.22;1039972;28;20029;-71
2020/12/14 01:58:40;;;;;;;18.48;15.82;;;;;;;2.29;100.00;95708.50;1035974;28;20073;-68
2020/12/14 01:59:10;;;;;;;19.48;16.15;;;;;;;2.24;100.00;95701.34;1039861;28;20068;-68
2020/12/14 01:59:41;;;;;;;19.33;16.75;;;;;;;2.23;100.00;95706.78;1039919;28;20025;-74
2020/12/14 02:00:11;;;;;;;19.58;16.42;;;;;;;2.19;100.00;95711.66;1036076;28;20026;-69
2020/12/14 02:00:43;;;;;;;19.83;16.42;;;;;;;2.20;100.00;95702.84;1039967;28;20022;-70
2020/12/14 02:01:13;;;;;;;19.27;16.30;;;;;;;2.21;100.00;95701.00;1039991;28;20079;-68
2020/12/14 02:01:44;;;;;;;19.73;16.20;;;;;;;2.16;100.00;95696.44;1036373;28;20366;-66
2020/12/14 02:02:14;;;;;;;19.73;17.42;;;;;;;2.13;100.00;95708.16;1036738;28;20037;-68
2020/12/14 02:02:45;;;;;;;19.77;16.83;;;;;;;2.07;100.00;95700.44;1036680;28;20030;-70
2020/12/14 02:03:18;;;;;;;19.90;16.33;;;;;;;2.11;100.00;95694.53;1036870;28;20365;-71
2020/12/14 02:03:48;;;;;;;22.05;18.98;;;;;;;2.06;100.00;95698.84;1040789;28;20268;-69
2020/12/14 02:04:19;;;;;;;20.63;17.92;;;;;;;2.03;100.00;95696.69;1041070;28;20248;-69
2020/12/14 02:04:49;;;;;;;22.83;19.02;;;;;;;2.01;100.00;95694.31;1040690;28;20056;-72
2020/12/14 02:05:20;;;;;;;22.27;18.63;;;;;;;1.98;100.00;95695.56;1040700;28;20451;-69
2020/12/14 02:05:50;;;;;;;23.10;18.92;;;;;;;1.99;100.00;95693.72;1040787;28;20028;-68
2020/12/14 02:06:21;;;;;;;23.70;17.65;;;;;;;2.01;100.00;95691.69;1040536;28;20165;-69
2020/12/14 02:06:51;;;;;;;20.38;17.00;;;;;;;1.99;100.00;95688.50;1040599;28;20482;-69
2020/12/14 02:07:24;;;;;;;19.42;17.33;;;;;;;1.99;100.00;95686.69;1041048;28;20025;-69
2020/12/14 02:07:55;;;;;;;18.00;14.80;;;;;;;2.00;100.00;95690.09;1041110;28;20041;-68
2020/12/14 02:08:25;;;;;;;19.30;16.73;;;;;;;1.98;100.00;95694.75;1040790;28;20256;-70
2020/12/14 02:08:56;;;;;;;19.15;16.30;;;;;;;1.99;100.00;95693.72;1041001;28;20017;-69
2020/12/14 02:09:26;;;;;;;18.40;16.35;;;;;;;2.03;100.00;95689.66;1041091;28;20432;-73
2020/12/14 02:09:57;;;;;;;20.10;16.30;;;;;;;2.03;100.00;95689.66;1041036;28;20454;-69
2020/12/14 02:10:27;;;;;;;19.63;16.85;;;;;;;2.01;100.00;95690.91;1041004;28;20030;-67
2020/12/14 02:10:58;;;;;;;20.38;17.42;;;;;;;2.00;100.00;95682.25;1040555;28;20037;-71
2020/12/14 02:11:29;;;;;;;20.90;18.45;;;;;;;1.96;100.00;95675.91;1036573;28;20026;-69
2020/12/14 02:12:00;;;;;;;22.33;17.48;;;;;;;1.98;100.00;95685.13;1032565;28;20281;-69
2020/12/14 02:12:30;;;;;;;18.45;16.45;;;;;;;2.02;100.00;95680.22;1032788;28;20415;-67
2020/12/14 02:13:01;;;;;;;21.38;17.00;;;;;;;2.00;100.00;95669.22;1036689;28;20026;-69
2020/12/14 02:13:31;;;;;;;21.33;18.20;;;;;;;2.02;100.00;95672.38;1040750;28;20025;-66
2020/12/14 02:14:02;;;;;;;20.05;17.00;;;;;;;2.01;100.00;95677.84;1040727;28;20029;-70
2020/12/14 02:14:36;;;;;;;19.38;16.83;;;;;;;1.98;100.00;95674.69;1040711;28;20050;-66
2020/12/14 02:15:07;;;;;;;19.65;17.23;;;;;;;1.97;100.00;95673.06;1040650;28;20456;-70
2020/12/14 02:15:37;;;;;;;15.95;13.93;;;;;;;1.99;100.00;95678.06;1040641;28;20276;-74
2020/12/14 02:16:08;;;;;;;15.38;13.77;;;;;;;2.03;100.00;95666.16;1040678;28;20029;-75
2020/12/14 02:16:38;;;;;;;16.42;14.60;;;;;;;2.07;100.00;95671.72;1040683;28;20029;-66
2020/12/14 02:17:09;;;;;;;18.02;15.48;;;;;;;2.01;100.00;95667.41;1040688;28;20359;-69
2020/12/14 02:17:39;;;;;;;18.35;15.73;;;;;;;2.01;100.00;95670.81;1040617;28;20021;-69
2020/12/14 02:18:10;;;;;;;18.77;16.00;;;;;;;1.98;100.00;95664.25;1040764;28;20021;-66
2020/12/14 02:18:41;;;;;;;17.65;15.75;;;;;;;1.98;100.00;95669.47;1036541;28;20256;-73
2020/12/14 02:19:11;;;;;;;19.58;16.00;;;;;;;1.97;100.00;95672.28;1036724;28;20049;-69
2020/12/14 02:19:42;;;;;;;17.00;15.07;;;;;;;1.96;100.00;95671.50;1036570;28;20573;-71
2020/12/14 02:20:12;;;;;;;17.75;15.27;;;;;;;1.96;100.00;95670.69;1032607;28;20030;-67
2020/12/14 02:20:43;;;;;;;20.17;16.42;;;;;;;1.98;100.00;95672.06;1036565;28;20021;-70
2020/12/14 02:21:15;;;;;;;19.52;16.27;;;;;;;1.96;100.00;95670.69;1036803;28;20025;-69
2020/12/14 02:21:49;;;;;;;19.20;16.10;;;;;;;1.93;100.00;95679.78;1032466;28;20313;-68
2020/12/14 02:22:26;;;;;;;17.95;16.05;;;;;;;1.92;100.00;95667.75;1032215;28;20352;-70